Time;durP1;ratioP1;P1;durP2;ratioP2;P2;SDS_P1;SDS_P2;PMS_P1;PMS_P2;Temp;Humidity;BMP_temperature;BMP_pressure;BME280_temperature;BME280_humidity;BME280_pressure;Samples;Min_cycle;Max_cycle;Signal;HPM_P1;HPM_P2
2023/04/25 00:02:08;;;;;;;11.02;2.65;;;;;;;2.84;100.00;100927.09;5131445;28;20379;-83
2023/04/25 00:04:37;;;;;;;9.27;2.85;;;;;;;3.27;100.00;101001.13;5132215;28;20054;-84
2023/04/25 00:07:05;;;;;;;12.07;2.95;;;;;;;3.10;100.00;100996.88;5130901;27;20058;-83
2023/04/25 00:09:32;;;;;;;10.68;2.90;;;;;;;2.99;100.00;100988.25;5132451;28;20178;-84
2023/04/25 00:11:58;;;;;;;10.45;3.03;;;;;;;3.34;100.00;101042.50;5131427;28;20035;-84
2023/04/25 00:14:25;;;;;;;6.13;2.35;;;;;;;2.87;100.00;100973.66;5132559;28;20051;-84
2023/04/25 00:16:52;;;;;;;12.50;3.30;;;;;;;3.42;100.00;101045.09;5132384;28;20075;-84
2023/04/25 00:19:19;;;;;;;7.80;2.42;;;;;;;3.06;100.00;101017.56;5128831;27;20051;-84
2023/04/25 00:21:46;;;;;;;11.88;2.95;;;;;;;3.06;100.00;100969.28;5131628;28;20062;-84
2023/04/25 00:24:12;;;;;;;8.80;2.60;;;;;;;3.19;100.00;100970.97;5124195;27;20525;-84
2023/04/25 00:26:39;;;;;;;6.15;2.33;;;;;;;3.15;100.00;100964.09;5128046;28;20051;-84
2023/04/25 00:29:06;;;;;;;8.63;2.42;;;;;;;3.20;100.00;100992.53;5124467;28;20047;-83
2023/04/25 00:31:33;;;;;;;9.63;2.70;;;;;;;2.95;100.00;100963.28;5126071;28;20039;-83
2023/04/25 00:34:00;;;;;;;7.55;2.42;;;;;;;3.12;100.00;100976.19;5126171;28;20518;-83
2023/04/25 00:36:27;;;;;;;8.77;2.75;;;;;;;3.03;100.00;100983.09;5122186;28;20047;-84
2023/04/25 00:38:54;;;;;;;9.95;2.55;;;;;;;3.00;100.00;100964.97;5129057;27;20047;-83
2023/04/25 00:41:22;;;;;;;7.65;2.33;;;;;;;2.82;100.00;100957.28;5129529;28;20071;-83
2023/04/25 00:43:49;;;;;;;8.02;2.50;;;;;;;2.94;100.00;100977.94;5130204;27;20574;-84
2023/04/25 00:46:17;;;;;;;8.65;2.83;;;;;;;2.98;100.00;100996.91;5121752;28;20086;-83
2023/04/25 00:48:44;;;;;;;13.18;3.25;;;;;;;2.57;100.00;100939.22;5124640;27;20047;-83
2023/04/25 00:51:15;;;;;;;10.00;3.15;;;;;;;2.87;100.00;101022.78;5131597;28;20047;-83
2023/04/25 00:53:42;;;;;;;9.75;2.75;;;;;;;2.66;100.00;100972.81;5130626;28;20078;-83
2023/04/25 00:56:09;;;;;;;13.18;2.70;;;;;;;2.63;100.00;100964.19;5112991;28;20062;-83
2023/04/25 00:58:38;;;;;;;11.45;2.88;;;;;;;3.06;100.00;101013.25;5113072;28;20062;-84
2023/04/25 01:01:06;;;;;;;7.72;2.53;;;;;;;2.86;100.00;100974.50;5120825;28;20180;-83
2023/04/25 01:03:35;;;;;;;8.85;2.58;;;;;;;2.99;100.00;101014.13;5126826;27;20416;-83
2023/04/25 01:06:02;;;;;;;10.68;2.65;;;;;;;3.24;100.00;101035.66;5135214;27;20397;-83
2023/04/25 01:08:30;;;;;;;11.65;2.60;;;;;;;2.90;100.00;100990.88;5122151;27;20047;-83
2023/04/25 01:10:56;;;;;;;9.63;2.65;;;;;;;2.59;100.00;100978.00;5134837;27;20047;-83
2023/04/25 01:13:23;;;;;;;11.73;2.60;;;;;;;3.03;100.00;101010.69;5127106;27;20047;-83
2023/04/25 01:15:50;;;;;;;10.07;2.40;;;;;;;2.50;100.00;100950.44;5135419;27;20049;-83
2023/04/25 01:18:18;;;;;;;7.38;2.67;;;;;;;2.73;100.00;100991.78;5134619;27;20464;-83
2023/04/25 01:20:46;;;;;;;5.75;2.20;;;;;;;2.66;100.00;100957.31;5137094;27;20108;-83
2023/04/25 01:23:14;;;;;;;6.18;2.25;;;;;;;3.15;100.00;101012.38;5135409;27;20047;-83
2023/04/25 01:25:41;;;;;;;6.95;2.40;;;;;;;2.96;100.00;101020.19;5131414;27;20533;-83
2023/04/25 01:28:07;;;;;;;10.30;2.75;;;;;;;3.08;100.00;101018.44;5135079;27;20054;-83
2023/04/25 01:30:35;;;;;;;12.60;3.03;;;;;;;3.01;100.00;101004.63;5135285;27;20043;-83
2023/04/25 01:33:05;;;;;;;12.00;3.38;;;;;;;2.69;100.00;100995.19;5134859;27;20058;-83
2023/04/25 01:35:32;;;;;;;10.27;2.35;;;;;;;2.90;100.00;101009.84;5115203;28;20112;-83
2023/04/25 01:37:59;;;;;;;9.20;2.25;;;;;;;2.45;100.00;100957.31;5118970;27;20052;-83
2023/04/25 01:40:27;;;;;;;8.38;2.75;;;;;;;2.60;100.00;100978.00;5128557;27;20040;-83
2023/04/25 01:42:54;;;;;;;8.63;2.47;;;;;;;2.86;100.00;101023.66;5130735;27;20391;-83
2023/04/25 01:45:21;;;;;;;7.60;2.15;;;;;;;2.79;100.00;100990.91;5132072;27;20059;-83
2023/04/25 01:47:49;;;;;;;8.60;2.70;;;;;;;2.48;100.00;100965.09;5133590;27;20046;-83
2023/04/25 01:50:19;;;;;;;6.85;2.17;;;;;;;2.65;100.00;100973.66;5126103;27;20142;-83
2023/04/25 01:52:45;;;;;;;8.25;2.55;;;;;;;2.73;100.00;101014.19;5122415;27;20040;-84
2023/04/25 01:55:12;;;;;;;10.32;2.72;;;;;;;2.41;100.00;100956.47;5127584;27;20048;-83
2023/04/25 01:57:39;;;;;;;10.13;2.70;;;;;;;2.27;100.00;100937.53;5129982;27;20076;-82
2023/04/25 02:00:08;;;;;;;9.25;2.50;;;;;;;2.56;100.00;100983.16;5120461;27;20050;-83
2023/04/25 02:02:35;;;;;;;9.82;2.50;;;;;;;2.82;100.00;100999.50;5122318;27;20032;-83
2023/04/25 02:05:02;;;;;;;7.93;2.30;;;;;;;2.78;100.00;100996.91;5133621;27;20096;-83
2023/04/25 02:07:29;;;;;;;11.93;2.80;;;;;;;2.40;100.00;100940.97;5135556;27;20051;-84
2023/04/25 02:09:56;;;;;;;12.38;2.78;;;;;;;2.33;100.00;100939.25;5134085;27;20051;-83
2023/04/25 02:12:24;;;;;;;13.00;3.53;;;;;;;2.77;100.00;101024.50;5134133;27;20036;-83
2023/04/25 02:14:50;;;;;;;10.75;3.03;;;;;;;2.65;100.00;100989.16;5135344;27;20047;-82
2023/04/25 02:17:17;;;;;;;11.02;2.47;;;;;;;2.56;100.00;100986.59;5135024;27;20054;-83
2023/04/25 02:19:44;;;;;;;7.47;2.42;;;;;;;2.39;100.00;100957.31;5133502;27;20057;-82
2023/04/25 02:22:11;;;;;;;10.00;2.72;;;;;;;2.31;100.00;100957.31;5131728;27;20043;-82
2023/04/25 02:24:38;;;;;;;14.35;2.95;;;;;;;2.70;100.00;101003.84;5134596;27;20096;-83
2023/04/25 02:27:05;;;;;;;8.93;2.35;;;;;;;2.60;100.00;100970.25;5125541;27;20055;-83
2023/04/25 02:29:32;;;;;;;8.07;2.05;;;;;;;2.36;100.00;100923.75;5129303;27;20054;-83
2023/04/25 02:31:59;;;;;;;5.18;1.95;;;;;;;2.81;100.00;100982.25;5132773;27;20043;-83
2023/04/25 02:34:25;;;;;;;7.13;2.15;;;;;;;2.54;100.00;100967.66;5120099;27;20432;-83
2023/04/25 02:36:54;;;;;;;8.05;2.38;;;;;;;2.38;100.00;100940.97;5127146;27;20043;-83
2023/04/25 02:39:22;;;;;;;15.65;2.50;;;;;;;2.44;100.00;100987.50;5128083;27;20136;-83
2023/04/25 02:41:48;;;;;;;10.30;2.30;;;;;;;2.49;100.00;100974.53;5131763;27;20031;-83
2023/04/25 02:44:15;;;;;;;7.07;2.53;;;;;;;2.46;100.00;100984.88;5133571;27;20047;-83
2023/04/25 02:46:42;;;;;;;7.70;2.45;;;;;;;2.42;100.00;100988.34;5132823;27;20050;-82
2023/04/25 02:49:09;;;;;;;15.23;2.53;;;;;;;2.69;100.00;101020.22;5134253;27;20055;-83
2023/04/25 02:51:36;;;;;;;5.90;2.20;;;;;;;2.09;100.00;100951.31;5132797;27;20050;-83
2023/04/25 02:54:03;;;;;;;11.13;2.05;;;;;;;2.14;100.00;100961.63;5132763;27;20047;-83
2023/04/25 02:56:29;;;;;;;7.18;2.45;;;;;;;2.07;100.00;100982.28;5134503;27;20043;-83
2023/04/25 02:58:56;;;;;;;5.63;2.60;;;;;;;2.03;100.00;100966.78;5134161;27;21742;-83
2023/04/25 03:01:23;;;;;;;7.32;2.20;;;;;;;2.32;100.00;101004.69;5126534;27;20042;-83
2023/04/25 03:03:50;;;;;;;7.72;2.45;;;;;;;2.06;100.00;100995.19;5120003;27;20050;-83
2023/04/25 03:06:17;;;;;;;10.10;3.40;;;;;;;2.21;100.00;100991.75;5123308;27;20448;-83
2023/04/25 03:08:43;;;;;;;5.90;1.90;;;;;;;1.86;100.00;100931.47;5118760;27;20052;-83
2023/04/25 03:11:10;;;;;;;7.20;1.92;;;;;;;2.46;100.00;101002.97;5133278;27;20043;-83
2023/04/25 03:13:37;;;;;;;5.13;1.92;;;;;;;2.23;100.00;100961.63;5131745;27;20047;-83
2023/04/25 03:16:04;;;;;;;7.07;1.80;;;;;;;2.22;100.00;100972.84;5131501;27;20057;-83
2023/04/25 03:18:31;;;;;;;6.72;1.65;;;;;;;2.49;100.00;101008.16;5121565;27;20047;-83
2023/04/25 03:20:58;;;;;;;6.35;1.67;;;;;;;2.16;100.00;100963.38;5127271;27;20438;-82
2023/04/25 03:23:25;;;;;;;4.28;1.75;;;;;;;2.07;100.00;100960.75;5132215;27;20039;-83
2023/04/25 03:25:52;;;;;;;5.47;1.70;;;;;;;2.40;100.00;100983.16;5134195;27;20486;-83
2023/04/25 03:28:20;;;;;;;5.15;1.60;;;;;;;2.38;100.00;101002.97;5133225;27;20401;-83
2023/04/25 03:30:46;;;;;;;7.75;2.17;;;;;;;2.31;100.00;100969.41;5132676;27;20705;-82
2023/04/25 03:33:13;;;;;;;4.93;1.60;;;;;;;2.42;100.00;100994.34;5129047;27;20499;-82
2023/04/25 03:35:40;;;;;;;7.57;1.70;;;;;;;1.89;100.00;100923.75;5124364;27;20054;-83
2023/04/25 03:38:06;;;;;;;7.25;1.85;;;;;;;2.25;100.00;100981.44;5132288;27;20059;-82
2023/04/25 03:40:33;;;;;;;6.32;1.95;;;;;;;2.46;100.00;101002.97;5122216;27;20051;-82
2023/04/25 03:43:00;;;;;;;5.43;2.25;;;;;;;2.02;100.00;100926.31;5131527;27;20055;-83
2023/04/25 03:45:27;;;;;;;7.45;2.33;;;;;;;2.00;100.00;100935.78;5118901;27;20054;-82
2023/04/25 03:47:53;;;;;;;6.03;2.20;;;;;;;2.09;100.00;100952.16;5127997;27;20459;-82
2023/04/25 03:50:20;;;;;;;8.43;2.05;;;;;;;2.06;100.00;100948.72;5132860;27;20054;-82
2023/04/25 03:52:47;;;;;;;4.65;1.92;;;;;;;1.99;100.00;100952.16;5131947;27;20395;-83
2023/04/25 03:55:14;;;;;;;10.15;2.33;;;;;;;2.04;100.00;100953.03;5134208;27;20049;-84
2023/04/25 03:57:40;;;;;;;5.05;1.85;;;;;;;2.05;100.00;100965.94;5130424;27;20403;-81
2023/04/25 04:00:08;;;;;;;6.78;2.10;;;;;;;2.32;100.00;101005.56;5119323;28;20051;-82
2023/04/25 04:02:36;;;;;;;8.45;2.45;;;;;;;1.80;100.00;100948.66;5126713;28;20047;-82
2023/04/25 04:05:03;;;;;;;10.25;2.47;;;;;;;2.04;100.00;100959.03;5132377;28;20047;-82
2023/04/25 04:07:32;;;;;;;17.05;3.20;;;;;;;2.07;100.00;100978.81;5118305;28;20078;-83
2023/04/25 04:09:59;;;;;;;8.52;2.25;;;;;;;1.83;100.00;100966.75;5132324;28;20051;-82
2023/04/25 04:12:26;;;;;;;10.85;2.30;;;;;;;1.77;100.00;100935.75;5132450;27;20119;-82
2023/04/25 04:14:53;;;;;;;10.75;2.30;;;;;;;2.37;100.00;101016.75;5133396;27;20107;-82
2023/04/25 04:17:19;;;;;;;9.43;2.33;;;;;;;2.20;100.00;101003.84;5133493;27;20151;-83
2023/04/25 04:19:46;;;;;;;7.22;2.35;;;;;;;2.18;100.00;100986.59;5131973;28;20051;-82
2023/04/25 04:22:13;;;;;;;5.55;1.63;;;;;;;2.23;100.00;100993.50;5130851;28;20047;-82
2023/04/25 04:24:39;;;;;;;7.13;2.15;;;;;;;2.35;100.00;101005.56;5133040;27;20897;-82
2023/04/25 04:27:06;;;;;;;9.90;2.55;;;;;;;2.09;100.00;100972.81;5132733;27;20055;-82
2023/04/25 04:29:33;;;;;;;7.15;2.47;;;;;;;2.12;100.00;100982.28;5131341;28;20058;-82
2023/04/25 04:32:00;;;;;;;11.18;3.45;;;;;;;2.01;100.00;100969.34;5131120;28;20126;-82
2023/04/25 04:34:27;;;;;;;8.85;1.88;;;;;;;1.92;100.00;100935.78;5126210;27;20117;-82
2023/04/25 04:36:54;;;;;;;5.70;2.03;;;;;;;2.05;100.00;100980.56;5132009;28;20047;-83
2023/04/25 04:39:22;;;;;;;6.70;2.22;;;;;;;1.88;100.00;100952.13;5134733;27;20105;-83
2023/04/25 04:41:48;;;;;;;6.53;2.03;;;;;;;1.81;100.00;100928.03;5134943;27;20043;-83
2023/04/25 04:44:15;;;;;;;9.57;2.45;;;;;;;2.19;100.00;101002.09;5137699;27;20070;-84
2023/04/25 04:46:42;;;;;;;6.25;2.38;;;;;;;1.76;100.00;100929.72;5137651;27;20047;-83
2023/04/25 04:49:10;;;;;;;7.85;2.35;;;;;;;2.23;100.00;101016.75;5136133;27;20103;-82
2023/04/25 04:51:38;;;;;;;8.45;2.65;;;;;;;1.77;100.00;100940.91;5129811;27;20416;-82
2023/04/25 04:54:04;;;;;;;9.50;2.70;;;;;;;2.09;100.00;100996.06;5123923;27;20088;-82
2023/04/25 04:56:32;;;;;;;8.55;2.15;;;;;;;2.04;100.00;100996.94;5129105;27;20046;-82
2023/04/25 04:58:59;;;;;;;10.18;2.30;;;;;;;2.05;100.00;100988.31;5123934;27;20051;-81
2023/04/25 05:01:26;;;;;;;8.77;2.38;;;;;;;2.21;100.00;101013.31;5134813;27;20047;-82
2023/04/25 05:03:53;;;;;;;8.52;2.53;;;;;;;2.23;100.00;101021.94;5134777;27;20039;-81
2023/04/25 05:06:21;;;;;;;7.60;1.77;;;;;;;2.00;100.00;100971.94;5129149;27;20078;-82
2023/04/25 05:08:48;;;;;;;7.13;2.20;;;;;;;2.37;100.00;101029.66;5122615;27;20055;-82
2023/04/25 05:11:15;;;;;;;5.40;2.10;;;;;;;1.79;100.00;100946.94;5135538;27;20043;-82
2023/04/25 05:13:42;;;;;;;6.85;2.22;;;;;;;2.16;100.00;101002.13;5134678;27;20043;-82
2023/04/25 05:16:09;;;;;;;7.50;2.47;;;;;;;2.13;100.00;100953.03;5135278;27;20049;-82
2023/04/25 05:18:36;;;;;;;4.78;1.83;;;;;;;2.50;100.00;100996.97;5136391;27;20112;-82
2023/04/25 05:21:03;;;;;;;9.57;2.30;;;;;;;2.39;100.00;100984.03;5123551;27;20101;-82
2023/04/25 05:23:30;;;;;;;9.80;2.45;;;;;;;2.35;100.00;100989.19;5128177;27;20123;-82
2023/04/25 05:25:59;;;;;;;10.15;2.63;;;;;;;2.33;100.00;100983.16;5129310;27;20096;-81
2023/04/25 05:28:26;;;;;;;10.80;2.53;;;;;;;2.20;100.00;100979.72;5114935;28;20043;-81
2023/04/25 05:30:53;;;;;;;6.40;1.98;;;;;;;2.41;100.00;101015.91;5118259;27;20546;-82
2023/04/25 05:33:19;;;;;;;8.10;1.75;;;;;;;2.26;100.00;100971.97;5134045;27;20043;-82
2023/04/25 05:35:46;;;;;;;10.82;2.22;;;;;;;2.73;100.00;101053.84;5135360;27;20503;-83
2023/04/25 05:38:13;;;;;;;8.48;2.30;;;;;;;2.83;100.00;101071.06;5117121;27;20500;-83
2023/04/25 05:40:40;;;;;;;8.63;2.20;;;;;;;2.32;100.00;100997.81;5118386;27;20085;-81
2023/04/25 05:43:07;;;;;;;7.82;2.40;;;;;;;2.70;100.00;101040.91;5130038;27;20074;-82
2023/04/25 05:45:34;;;;;;;7.97;2.05;;;;;;;2.66;100.00;101003.84;5129186;27;20404;-83
2023/04/25 05:48:01;;;;;;;14.30;2.70;;;;;;;2.63;100.00;101001.25;5121402;27;20043;-83
2023/04/25 05:50:28;;;;;;;6.93;1.92;;;;;;;3.19;100.00;101048.59;5121788;27;20056;-83
2023/04/25 05:52:54;;;;;;;5.85;2.00;;;;;;;3.34;100.00;101050.28;5128482;27;20100;-83
2023/04/25 05:55:21;;;;;;;6.38;1.90;;;;;;;3.24;100.00;101035.66;5134240;27;20071;-83
2023/04/25 05:57:48;;;;;;;6.75;2.17;;;;;;;3.34;100.00;101018.38;5126285;27;20062;-83
2023/04/25 06:00:18;;;;;;;10.77;2.50;;;;;;;3.59;100.00;101064.03;5131412;27;20047;-84
2023/04/25 06:02:45;;;;;;;10.27;2.45;;;;;;;3.40;100.00;101019.22;5127599;27;20035;-83
2023/04/25 06:05:12;;;;;;;12.65;2.00;;;;;;;3.71;100.00;101064.84;5131210;27;20050;-83
2023/04/25 06:07:39;;;;;;;8.77;2.33;;;;;;;3.49;100.00;101048.50;5126157;27;20131;-84
2023/04/25 06:10:07;;;;;;;6.85;2.28;;;;;;;3.37;100.00;101039.06;5119070;27;20051;-84
2023/04/25 06:12:33;;;;;;;6.78;2.20;;;;;;;3.65;100.00;101089.03;5126809;27;20054;-84
2023/04/25 06:15:00;;;;;;;5.93;1.90;;;;;;;3.43;100.00;101059.75;5121714;27;20564;-84
2023/04/25 06:17:29;;;;;;;6.80;1.95;;;;;;;3.47;100.00;101048.53;5133648;27;20081;-85
2023/04/25 06:19:56;;;;;;;7.50;1.80;;;;;;;3.38;100.00;101049.41;5134995;27;20125;-84
2023/04/25 06:22:23;;;;;;;8.05;2.30;;;;;;;3.61;100.00;101105.44;5132891;27;20070;-84
2023/04/25 06:24:50;;;;;;;9.93;2.50;;;;;;;3.26;100.00;101057.22;5131840;27;20082;-84
2023/04/25 06:27:16;;;;;;;6.70;2.00;;;;;;;3.24;100.00;101030.47;5132079;27;20051;-84
2023/04/25 06:29:43;;;;;;;9.70;2.85;;;;;;;3.27;100.00;101047.72;5129393;27;20043;-84
2023/04/25 06:32:10;;;;;;;8.38;2.58;;;;;;;3.66;100.00;101103.69;5130220;27;20054;-83
2023/04/25 06:34:36;;;;;;;5.70;1.98;;;;;;;3.16;100.00;101060.69;5128857;27;20055;-84
2023/04/25 06:37:03;;;;;;;7.68;2.42;;;;;;;3.14;100.00;101041.72;5121485;27;20051;-84
2023/04/25 06:39:30;;;;;;;7.88;2.20;;;;;;;3.19;100.00;101024.47;5132386;27;20051;-85
2023/04/25 06:41:56;;;;;;;9.02;1.85;;;;;;;3.38;100.00;101054.59;5119865;27;20434;-85
2023/04/25 06:44:25;;;;;;;8.55;2.03;;;;;;;3.14;100.00;101045.16;5127460;27;20540;-84
2023/04/25 06:46:52;;;;;;;6.50;2.05;;;;;;;3.87;100.00;101045.75;5128933;27;20446;-86
2023/04/25 06:49:19;;;;;;;8.38;2.17;;;;;;;4.87;100.00;101016.53;5116170;27;20048;-84
2023/04/25 06:51:46;;;;;;;8.25;2.10;;;;;;;5.84;100.00;101041.41;5125675;27;20043;-85
2023/04/25 06:54:12;;;;;;;6.65;2.15;;;;;;;6.19;100.00;101055.66;5130612;27;20043;-83
2023/04/25 06:56:42;;;;;;;7.55;2.20;;;;;;;6.64;100.00;101053.25;5131220;27;20051;-83
2023/04/25 06:59:09;;;;;;;7.38;1.92;;;;;;;7.19;100.00;101050.59;5129680;27;20054;-82
2023/04/25 07:01:35;;;;;;;5.25;1.67;;;;;;;7.68;100.00;101074.81;5122244;27;20044;-84
2023/04/25 07:04:02;;;;;;;7.57;1.98;;;;;;;7.84;100.00;101064.94;5132879;27;20251;-84
2023/04/25 07:06:30;;;;;;;6.63;1.90;;;;;;;7.16;100.00;101068.88;5133363;27;20480;-85
2023/04/25 07:08:57;;;;;;;7.53;1.83;;;;;;;6.93;100.00;101114.38;5133103;27;20054;-83
2023/04/25 07:11:26;;;;;;;11.02;1.77;;;;;;;6.91;100.00;101058.88;5132775;27;20043;-84
2023/04/25 07:13:52;;;;;;;8.02;1.80;;;;;;;7.18;100.00;101038.44;5118731;27;20047;-82
2023/04/25 07:16:19;;;;;;;6.45;1.70;;;;;;;7.85;100.00;101061.47;5128053;27;20146;-83
2023/04/25 07:18:46;;;;;;;6.32;1.67;;;;;;;7.07;100.00;101043.84;5113151;27;20043;-82
2023/04/25 07:21:13;;;;;;;5.00;1.75;;;;;;;7.50;100.00;101039.56;5132173;27;20055;-82
2023/04/25 07:23:40;;;;;;;3.95;1.30;;;;;;;7.41;100.00;101061.44;5115248;27;20050;-82
2023/04/25 07:26:07;;;;;;;6.85;1.70;;;;;;;6.63;100.00;101056.75;5127600;27;20342;-83
2023/04/25 07:28:34;;;;;;;4.03;1.30;;;;;;;6.67;100.00;101028.06;5121409;27;20047;-82
2023/04/25 07:31:01;;;;;;;6.50;1.58;;;;;;;7.54;100.00;101083.78;5120241;27;20050;-84
2023/04/25 07:33:28;;;;;;;10.18;1.52;;;;;;;6.74;100.00;101074.78;5132439;27;20043;-83
2023/04/25 07:35:55;;;;;;;4.68;1.38;;;;;;;6.98;100.00;101008.44;5133090;27;20047;-83
2023/04/25 07:38:22;;;;;;;4.72;1.30;;;;;;;8.10;100.00;101033.94;5120252;27;20494;-83
2023/04/25 07:40:49;;;;;;;6.43;1.55;;;;;;;7.21;100.00;101018.41;5134292;27;20053;-82
2023/04/25 07:43:16;;;;;;;2.60;1.10;;;;;;;7.50;100.00;101083.88;5131944;27;20047;-85
2023/04/25 07:45:44;;;;;;;4.57;1.30;;;;;;;8.32;100.00;101115.19;5133293;27;20059;-83
2023/04/25 07:48:11;;;;;;;6.63;1.35;;;;;;;8.35;100.00;101090.78;5128452;27;20050;-83
2023/04/25 07:50:37;;;;;;;5.57;1.55;;;;;;;7.88;100.00;101075.28;5127534;27;20476;-82
2023/04/25 07:53:04;;;;;;;5.35;1.50;;;;;;;7.86;100.00;101053.63;5127348;27;20058;-83
2023/04/25 07:55:31;;;;;;;6.97;1.40;;;;;;;7.77;100.00;101125.03;5122984;28;20048;-82
2023/04/25 07:57:58;;;;;;;4.65;1.20;;;;;;;7.32;100.00;101126.75;5128603;27;20044;-82
2023/04/25 08:00:24;;;;;;;8.73;1.58;;;;;;;7.43;100.00;101097.91;5131093;28;20050;-83
2023/04/25 08:02:51;;;;;;;8.18;1.50;;;;;;;7.52;100.00;101046.47;5133922;28;20476;-83
2023/04/25 08:05:18;;;;;;;5.63;1.42;;;;;;;7.20;100.00;101039.28;5128472;27;20432;-83
2023/04/25 08:07:48;;;;;;;8.27;1.77;;;;;;;7.38;100.00;101084.94;5126134;28;20090;-82
2023/04/25 08:10:15;;;;;;;3.92;1.30;;;;;;;7.65;100.00;101078.38;5133788;28;20476;-82
2023/04/25 08:12:41;;;;;;;4.80;1.55;;;;;;;6.91;100.00;101045.88;5133515;27;20035;-82
2023/04/25 08:15:09;;;;;;;5.18;1.60;;;;;;;7.07;100.00;101116.75;5131276;27;20054;-82
2023/04/25 08:17:36;;;;;;;9.10;1.80;;;;;;;6.69;100.00;101042.75;5125394;27;20404;-82
2023/04/25 08:20:05;;;;;;;4.97;1.92;;;;;;;7.35;100.00;101118.91;5132698;27;20051;-83
2023/04/25 08:22:32;;;;;;;5.47;1.70;;;;;;;7.87;100.00;101067.50;5136501;27;20042;-83
2023/04/25 08:24:59;;;;;;;6.07;1.77;;;;;;;7.42;100.00;101037.13;5126316;27;20119;-83
2023/04/25 08:27:26;;;;;;;6.60;1.80;;;;;;;8.04;100.00;101098.41;5136867;27;20047;-83
2023/04/25 08:29:52;;;;;;;9.02;2.15;;;;;;;7.73;100.00;101101.66;5129586;27;20047;-82
2023/04/25 08:32:21;;;;;;;8.23;1.90;;;;;;;7.50;100.00;101055.22;5133098;27;20050;-82
2023/04/25 08:34:47;;;;;;;8.10;1.65;;;;;;;7.90;100.00;101127.41;5127113;27;20478;-83
2023/04/25 08:37:14;;;;;;;5.15;1.95;;;;;;;7.92;100.00;101061.28;5130625;27;20043;-83
2023/04/25 08:39:41;;;;;;;8.45;1.63;;;;;;;7.91;100.00;101126.50;5134907;27;20050;-84
2023/04/25 08:42:09;;;;;;;8.27;1.65;;;;;;;7.31;100.00;101117.22;5124736;27;20099;-83
2023/04/25 08:44:37;;;;;;;8.60;1.90;;;;;;;7.78;100.00;101128.50;5135409;27;20069;-83
2023/04/25 08:47:05;;;;;;;10.20;2.00;;;;;;;8.04;100.00;101127.97;5134884;27;20043;-83
2023/04/25 08:49:33;;;;;;;12.65;2.47;;;;;;;7.84;100.00;101128.38;5120513;27;20494;-83
2023/04/25 08:52:03;;;;;;;6.25;1.88;;;;;;;7.91;100.00;101121.28;5129748;27;20051;-83
2023/04/25 08:54:31;;;;;;;12.25;2.13;;;;;;;7.43;100.00;101088.34;5137101;27;20047;-83
2023/04/25 08:57:03;;;;;;;7.95;1.83;;;;;;;7.61;100.00;101131.41;5131521;27;20130;-83
2023/04/25 08:59:33;;;;;;;7.45;1.92;;;;;;;7.36;100.00;101098.00;5129213;27;20046;-83
2023/04/25 09:02:03;;;;;;;9.38;3.25;;;;;;;7.74;100.00;101101.63;5131846;27;20408;-83
2023/04/25 09:04:31;;;;;;;8.63;1.98;;;;;;;7.95;100.00;101143.78;5135240;27;20134;-83
2023/04/25 09:06:58;;;;;;;7.80;2.00;;;;;;;7.86;100.00;101118.78;5115819;27;20051;-81
2023/04/25 09:09:25;;;;;;;6.80;1.70;;;;;;;7.54;100.00;101125.50;5123064;27;20047;-81
2023/04/25 09:11:54;;;;;;;9.55;1.92;;;;;;;7.29;100.00;101116.38;5135651;27;20047;-80
2023/04/25 09:14:22;;;;;;;4.45;1.40;;;;;;;7.48;100.00;101086.50;5134905;27;20043;-81
2023/04/25 09:17:00;;;;;;;4.00;1.50;;;;;;;6.31;100.00;101171.69;5136409;27;20050;-81
2023/04/25 09:19:46;;;;;;;4.25;1.42;;;;;;;5.64;100.00;101114.38;5133517;27;20069;-81
2023/04/25 09:22:13;;;;;;;5.35;1.30;;;;;;;5.68;100.00;101105.69;5126256;27;20461;-81
2023/04/25 09:24:43;;;;;;;7.25;1.63;;;;;;;5.76;100.00;101100.41;5134501;27;20375;-80
2023/04/25 09:27:22;;;;;;;8.93;1.75;;;;;;;5.91;100.00;101151.31;5134350;27;20108;-80
2023/04/25 09:29:58;;;;;;;2.85;1.30;;;;;;;5.89;100.00;101096.75;5135835;27;20388;-81
2023/04/25 09:32:25;;;;;;;3.28;1.55;;;;;;;6.86;100.00;101174.38;5132336;27;20039;-81
2023/04/25 09:34:54;;;;;;;10.07;1.60;;;;;;;7.07;100.00;101168.00;5135729;27;20043;-80
2023/04/25 09:37:28;;;;;;;6.93;1.50;;;;;;;7.05;100.00;101074.28;5129520;27;20054;-80
2023/04/25 09:39:59;;;;;;;4.10;1.40;;;;;;;7.91;100.00;101158.63;5133453;27;20043;-80
2023/04/25 09:42:28;;;;;;;5.68;1.42;;;;;;;7.41;100.00;101132.66;5134427;27;20043;-80
2023/04/25 09:44:56;;;;;;;9.82;2.03;;;;;;;6.90;100.00;101043.28;5120626;27;20044;-80
2023/04/25 09:47:28;;;;;;;6.97;2.00;;;;;;;7.68;100.00;101166.91;5134334;27;20054;-80
2023/04/25 09:49:55;;;;;;;6.72;1.80;;;;;;;7.27;100.00;101068.69;5135560;27;20055;-80
2023/04/25 09:52:23;;;;;;;6.55;1.42;;;;;;;7.93;100.00;101136.03;5133580;27;20468;-80
2023/04/25 09:54:52;;;;;;;6.07;1.90;;;;;;;7.84;100.00;101136.19;5135360;27;20039;-81
2023/04/25 09:57:21;;;;;;;8.57;1.73;;;;;;;7.84;100.00;101137.94;5128825;27;20055;-80
2023/04/25 09:59:50;;;;;;;9.85;2.35;;;;;;;7.48;100.00;101076.09;5127273;27;20043;-80
2023/04/25 10:02:20;;;;;;;9.25;1.92;;;;;;;7.13;100.00;101116.66;5134617;27;20404;-80
2023/04/25 10:04:54;;;;;;;7.20;2.03;;;;;;;7.90;100.00;101102.19;5135383;27;20100;-80
2023/04/25 10:07:31;;;;;;;14.00;1.95;;;;;;;8.25;100.00;101124.06;5133480;27;20053;-81
2023/04/25 10:10:03;;;;;;;11.02;3.17;;;;;;;8.35;100.00;101127.31;5133947;27;20047;-80
2023/04/25 10:12:33;;;;;;;7.60;1.98;;;;;;;7.29;100.00;101150.25;5134613;27;20145;-80
2023/04/25 10:15:02;;;;;;;12.23;2.17;;;;;;;7.35;100.00;101165.78;5135396;27;20494;-80
2023/04/25 10:17:29;;;;;;;8.23;1.90;;;;;;;7.13;100.00;101142.69;5133768;27;20059;-80
2023/04/25 10:19:57;;;;;;;9.68;2.08;;;;;;;6.98;100.00;101119.53;5135734;27;20043;-80
2023/04/25 10:22:31;;;;;;;10.77;2.55;;;;;;;7.16;100.00;101100.13;5134397;27;20445;-80
2023/04/25 10:24:58;;;;;;;11.60;2.40;;;;;;;7.39;100.00;101126.59;5133569;27;20051;-81
2023/04/25 10:27:28;;;;;;;6.95;2.05;;;;;;;8.06;100.00;101160.09;5133204;27;20124;-80
2023/04/25 10:30:06;;;;;;;11.25;2.58;;;;;;;8.47;100.00;101134.91;5119373;27;20080;-79
2023/04/25 10:32:33;;;;;;;8.95;2.13;;;;;;;8.27;100.00;101134.44;5132317;27;20083;-81
2023/04/25 10:35:32;;;;;;;9.68;2.38;;;;;;;8.10;100.00;101150.47;5129852;27;20123;-81
2023/04/25 10:38:00;;;;;;;10.02;2.25;;;;;;;8.06;100.00;101122.72;5128911;27;20051;-80
2023/04/25 10:40:27;;;;;;;10.85;2.00;;;;;;;8.26;100.00;101120.53;5134477;27;20408;-81
2023/04/25 10:42:55;;;;;;;13.98;2.97;;;;;;;8.45;100.00;101146.28;5131769;27;20043;-81
2023/04/25 10:45:22;;;;;;;8.35;2.35;;;;;;;8.10;100.00;101148.69;5133075;27;20682;-80
2023/04/25 10:47:49;;;;;;;8.40;2.17;;;;;;;7.77;100.00;101119.84;5123727;27;20047;-81
2023/04/25 10:50:16;;;;;;;10.68;2.38;;;;;;;7.92;100.00;101160.38;5129651;27;20116;-80
2023/04/25 10:52:44;;;;;;;6.97;2.30;;;;;;;7.26;100.00;101140.75;5130036;27;20039;-81
2023/04/25 10:55:11;;;;;;;8.27;2.20;;;;;;;7.49;100.00;101202.00;5130501;27;20086;-80
2023/04/25 10:57:43;;;;;;;6.93;1.75;;;;;;;7.34;100.00;101131.03;5128800;27;20051;-81
2023/04/25 11:00:19;;;;;;;8.55;1.90;;;;;;;7.33;100.00;101154.50;5127872;27;20051;-81
2023/04/25 11:02:52;;;;;;;8.32;2.10;;;;;;;7.98;100.00;101169.81;5122846;27;20046;-81
2023/04/25 11:05:31;;;;;;;19.77;3.25;;;;;;;7.90;100.00;101151.72;5129766;27;20044;-81
2023/04/25 11:08:00;;;;;;;7.50;2.65;;;;;;;8.22;100.00;101191.94;5114566;27;20075;-80
2023/04/25 11:10:37;;;;;;;5.18;1.85;;;;;;;7.54;100.00;101223.63;5129230;27;20074;-81
2023/04/25 11:13:04;;;;;;;6.28;1.92;;;;;;;6.71;100.00;101199.75;5120747;27;20044;-80
2023/04/25 11:15:31;;;;;;;5.95;1.70;;;;;;;5.97;100.00;101179.03;5122775;27;20070;-81
2023/04/25 11:17:58;;;;;;;8.90;1.85;;;;;;;5.73;100.00;101135.94;5121300;27;20047;-81
2023/04/25 11:20:28;;;;;;;8.63;1.90;;;;;;;6.14;100.00;101168.41;5126690;27;20043;-81
2023/04/25 11:22:58;;;;;;;5.72;1.65;;;;;;;6.94;100.00;101207.22;5130925;27;20054;-81
2023/04/25 11:25:25;;;;;;;8.32;1.95;;;;;;;6.32;100.00;101123.13;5114558;27;20075;-81
2023/04/25 11:27:55;;;;;;;9.68;1.73;;;;;;;7.16;100.00;101214.72;5116767;27;20050;-81